createdAt,value
2022-10-20T00:24:52.523Z,14.1
2022-10-20T00:38:52.516Z,13.5
2022-10-20T00:52:52.562Z,13.7
2022-10-20T01:06:52.534Z,13.4
2022-10-20T01:20:52.547Z,13.3
2022-10-20T01:34:53.037Z,13.5
2022-10-20T01:48:52.694Z,13.4
2022-10-20T02:02:52.696Z,13.3
2022-10-20T02:16:52.707Z,13.2
2022-10-20T02:30:52.753Z,13.1
2022-10-20T02:44:52.770Z,12.8
2022-10-20T02:58:52.949Z,12.6
2022-10-20T03:12:52.815Z,12.4
2022-10-20T03:26:52.821Z,12.3
2022-10-20T03:40:52.903Z,12.4
2022-10-20T03:54:52.819Z,12.6
2022-10-20T04:08:52.917Z,12.5
2022-10-20T04:22:52.935Z,12.4
2022-10-20T04:36:52.965Z,12.2
2022-10-20T04:50:52.974Z,12.3
2022-10-20T05:04:52.977Z,12.1
2022-10-20T05:18:52.986Z,12.0
2022-10-20T05:33:53.100Z,12.1
2022-10-20T05:48:53.201Z,12.5
2022-10-20T06:04:53.368Z,12.7
2022-10-20T06:19:53.383Z,13.0
2022-10-20T06:34:53.406Z,13.5
2022-10-20T06:49:53.406Z,14.2
2022-10-20T07:04:53.408Z,14.2
2022-10-20T07:19:53.423Z,15.4
2022-10-20T07:34:53.517Z,17.5
2022-10-20T07:49:53.566Z,18.2
2022-10-20T08:04:53.547Z,19.7
2022-10-20T08:19:57.192Z,20.8
2022-10-20T08:34:53.576Z,21.7
2022-10-20T08:49:53.605Z,21.9
2022-10-20T09:04:53.608Z,22.4
2022-10-20T09:19:53.631Z,22.3
2022-10-20T09:34:53.659Z,22.6
2022-10-20T09:50:53.603Z,22.5
2022-10-20T10:05:53.711Z,21.8
2022-10-20T10:20:53.875Z,21.7
2022-10-20T10:35:53.917Z,22.1
2022-10-20T10:47:37.930Z,21.9
2022-10-20T11:02:37.001Z,22.2
2022-10-20T11:17:36.863Z,23.0
2022-10-20T11:32:36.828Z,23.1
2022-10-20T11:47:36.797Z,22.8
2022-10-20T12:02:36.996Z,22.7
2022-10-20T12:17:36.842Z,23.0
2022-10-20T12:32:37.355Z,23.9
2022-10-20T12:47:37.350Z,25.2
2022-10-20T13:02:37.128Z,24.9
2022-10-20T13:17:37.438Z,23.8
2022-10-20T13:32:39.979Z,23.3
2022-10-20T13:47:37.320Z,23.2
2022-10-20T14:02:37.587Z,22.4
2022-10-20T14:17:40.639Z,22.0
2022-10-20T14:32:37.424Z,21.9
2022-10-20T14:47:37.680Z,22.2
2022-10-20T15:02:37.565Z,22.2
2022-10-20T15:17:37.884Z,20.9
2022-10-20T15:32:37.877Z,20.1
2022-10-20T15:47:37.597Z,18.9
2022-10-20T16:02:37.871Z,17.6
2022-10-20T16:19:37.600Z,16.9
2022-10-20T16:34:37.603Z,16.2
2022-10-20T16:49:37.737Z,16.2
2022-10-20T17:03:37.781Z,16.0
2022-10-20T17:17:38.019Z,15.8
2022-10-20T17:31:37.784Z,16.0
2022-10-20T17:46:37.826Z,16.1
2022-10-20T18:00:55.249Z,16.2
2022-10-20T18:14:37.845Z,16.1
2022-10-20T18:28:37.852Z,16.1
2022-10-20T18:42:37.864Z,16.2
2022-10-20T18:56:37.860Z,16.2
2022-10-20T19:10:37.856Z,16.1
2022-10-20T19:24:37.919Z,15.6
2022-10-20T19:38:37.957Z,15.1
2022-10-20T19:52:38.323Z,15.1
2022-10-20T20:06:37.968Z,14.8
2022-10-20T20:20:37.975Z,14.4
2022-10-20T20:34:37.986Z,14.0
2022-10-20T20:48:37.977Z,14.1
2022-10-20T21:02:38.000Z,14.1
2022-10-20T21:16:37.977Z,14.3
2022-10-20T21:30:37.976Z,14.0
2022-10-20T21:44:37.991Z,13.7
2022-10-20T21:58:37.982Z,13.7
2022-10-20T22:12:38.037Z,13.7
2022-10-20T22:26:38.031Z,13.6
2022-10-20T22:40:38.015Z,13.5
2022-10-20T22:54:38.021Z,13.2
2022-10-20T23:08:38.062Z,13.3
2022-10-20T23:22:38.082Z,13.4
2022-10-20T23:36:38.987Z,13.6
2022-10-20T23:50:38.266Z,13.6
